sensor_id;sensor_type;location;lat;lon;timestamp;P1;durP1;ratioP1;P2;durP2;ratioP2
39266;SDS011;24967;51.154;13.812;2023-06-22T00:00:31;8.75;;;7.70;;
39266;SDS011;24967;51.154;13.812;2023-06-22T00:02:58;6.65;;;6.10;;
39266;SDS011;24967;51.154;13.812;2023-06-22T00:05:24;7.68;;;6.97;;
39266;SDS011;24967;51.154;13.812;2023-06-22T00:07:51;7.88;;;7.18;;
39266;SDS011;24967;51.154;13.812;2023-06-22T00:10:17;7.78;;;7.07;;
39266;SDS011;24967;51.154;13.812;2023-06-22T00:15:30;7.45;;;6.80;;
39266;SDS011;24967;51.154;13.812;2023-06-22T00:17:57;8.35;;;6.78;;
39266;SDS011;24967;51.154;13.812;2023-06-22T00:20:23;8.02;;;7.28;;
39266;SDS011;24967;51.154;13.812;2023-06-22T00:22:52;7.70;;;7.00;;
39266;SDS011;24967;51.154;13.812;2023-06-22T00:25:20;7.30;;;6.70;;
39266;SDS011;24967;51.154;13.812;2023-06-22T00:27:47;7.85;;;7.25;;
39266;SDS011;24967;51.154;13.812;2023-06-22T00:30:15;8.38;;;7.60;;
39266;SDS011;24967;51.154;13.812;2023-06-22T00:35:41;7.10;;;6.50;;
39266;SDS011;24967;51.154;13.812;2023-06-22T00:41:29;7.88;;;7.22;;
39266;SDS011;24967;51.154;13.812;2023-06-22T00:43:55;8.85;;;8.05;;
39266;SDS011;24967;51.154;13.812;2023-06-22T00:46:23;9.30;;;8.40;;
39266;SDS011;24967;51.154;13.812;2023-06-22T00:48:50;9.63;;;8.65;;
39266;SDS011;24967;51.154;13.812;2023-06-22T00:51:22;8.98;;;8.18;;
39266;SDS011;24967;51.154;13.812;2023-06-22T00:53:49;9.35;;;8.43;;
39266;SDS011;24967;51.154;13.812;2023-06-22T00:56:16;7.30;;;6.70;;
39266;SDS011;24967;51.154;13.812;2023-06-22T01:02:07;7.53;;;6.82;;
39266;SDS011;24967;51.154;13.812;2023-06-22T01:08:19;9.10;;;8.18;;
39266;SDS011;24967;51.154;13.812;2023-06-22T01:10:53;8.75;;;7.57;;
39266;SDS011;24967;51.154;13.812;2023-06-22T01:13:26;7.57;;;6.93;;
39266;SDS011;24967;51.154;13.812;2023-06-22T01:19:04;7.47;;;6.78;;
39266;SDS011;24967;51.154;13.812;2023-06-22T01:21:40;8.10;;;7.32;;
39266;SDS011;24967;51.154;13.812;2023-06-22T01:24:10;7.95;;;7.25;;
39266;SDS011;24967;51.154;13.812;2023-06-22T01:27:33;8.25;;;7.43;;
39266;SDS011;24967;51.154;13.812;2023-06-22T01:30:08;7.40;;;6.80;;
39266;SDS011;24967;51.154;13.812;2023-06-22T01:35:58;8.95;;;8.05;;
39266;SDS011;24967;51.154;13.812;2023-06-22T01:38:25;8.07;;;7.30;;
39266;SDS011;24967;51.154;13.812;2023-06-22T01:44:15;7.97;;;7.05;;
39266;SDS011;24967;51.154;13.812;2023-06-22T01:46:44;8.77;;;7.82;;
39266;SDS011;24967;51.154;13.812;2023-06-22T01:49:11;8.02;;;7.05;;
39266;SDS011;24967;51.154;13.812;2023-06-22T01:51:38;8.20;;;7.40;;
39266;SDS011;24967;51.154;13.812;2023-06-22T01:54:05;8.40;;;7.60;;
39266;SDS011;24967;51.154;13.812;2023-06-22T01:56:33;8.63;;;7.72;;
39266;SDS011;24967;51.154;13.812;2023-06-22T01:59:01;7.53;;;6.70;;
39266;SDS011;24967;51.154;13.812;2023-06-22T02:01:36;7.68;;;6.88;;
39266;SDS011;24967;51.154;13.812;2023-06-22T02:04:11;7.53;;;6.78;;
39266;SDS011;24967;51.154;13.812;2023-06-22T02:06:41;7.22;;;6.63;;
39266;SDS011;24967;51.154;13.812;2023-06-22T02:09:12;7.90;;;7.20;;
39266;SDS011;24967;51.154;13.812;2023-06-22T02:11:42;8.48;;;7.72;;
39266;SDS011;24967;51.154;13.812;2023-06-22T02:14:12;8.50;;;7.57;;
39266;SDS011;24967;51.154;13.812;2023-06-22T02:16:39;8.27;;;7.57;;
39266;SDS011;24967;51.154;13.812;2023-06-22T02:19:07;7.75;;;6.97;;
39266;SDS011;24967;51.154;13.812;2023-06-22T02:21:34;8.45;;;7.65;;
39266;SDS011;24967;51.154;13.812;2023-06-22T02:24:01;8.32;;;7.53;;
39266;SDS011;24967;51.154;13.812;2023-06-22T02:26:28;8.77;;;7.95;;
39266;SDS011;24967;51.154;13.812;2023-06-22T02:28:54;8.50;;;7.70;;
39266;SDS011;24967;51.154;13.812;2023-06-22T02:31:21;9.55;;;8.02;;
39266;SDS011;24967;51.154;13.812;2023-06-22T02:33:47;8.90;;;7.80;;
39266;SDS011;24967;51.154;13.812;2023-06-22T02:36:14;9.60;;;7.65;;
39266;SDS011;24967;51.154;13.812;2023-06-22T02:38:43;8.93;;;7.97;;
39266;SDS011;24967;51.154;13.812;2023-06-22T02:41:13;8.05;;;7.38;;
39266;SDS011;24967;51.154;13.812;2023-06-22T02:43:42;8.40;;;7.65;;
39266;SDS011;24967;51.154;13.812;2023-06-22T02:46:09;8.93;;;7.97;;
39266;SDS011;24967;51.154;13.812;2023-06-22T02:48:36;8.85;;;7.97;;
39266;SDS011;24967;51.154;13.812;2023-06-22T02:51:02;9.63;;;8.55;;
39266;SDS011;24967;51.154;13.812;2023-06-22T02:53:29;11.65;;;8.50;;
39266;SDS011;24967;51.154;13.812;2023-06-22T02:55:57;9.10;;;8.20;;
39266;SDS011;24967;51.154;13.812;2023-06-22T02:58:23;8.05;;;7.25;;
39266;SDS011;24967;51.154;13.812;2023-06-22T03:00:50;8.30;;;7.60;;
39266;SDS011;24967;51.154;13.812;2023-06-22T03:03:18;8.65;;;7.80;;
39266;SDS011;24967;51.154;13.812;2023-06-22T03:05:44;8.45;;;7.40;;
39266;SDS011;24967;51.154;13.812;2023-06-22T03:08:10;11.40;;;7.65;;
39266;SDS011;24967;51.154;13.812;2023-06-22T03:10:37;9.55;;;8.55;;
39266;SDS011;24967;51.154;13.812;2023-06-22T03:13:05;9.10;;;8.20;;
39266;SDS011;24967;51.154;13.812;2023-06-22T03:15:31;9.18;;;8.23;;
39266;SDS011;24967;51.154;13.812;2023-06-22T03:17:59;9.35;;;8.13;;
39266;SDS011;24967;51.154;13.812;2023-06-22T03:20:25;9.20;;;8.30;;
39266;SDS011;24967;51.154;13.812;2023-06-22T03:22:58;9.30;;;8.40;;
39266;SDS011;24967;51.154;13.812;2023-06-22T03:25:25;10.07;;;9.10;;
39266;SDS011;24967;51.154;13.812;2023-06-22T03:27:51;9.15;;;8.35;;
39266;SDS011;24967;51.154;13.812;2023-06-22T03:30:19;10.80;;;8.93;;
39266;SDS011;24967;51.154;13.812;2023-06-22T03:32:45;9.80;;;8.77;;
39266;SDS011;24967;51.154;13.812;2023-06-22T03:35:12;9.55;;;8.65;;
39266;SDS011;24967;51.154;13.812;2023-06-22T03:37:39;10.57;;;9.48;;
39266;SDS011;24967;51.154;13.812;2023-06-22T03:40:06;10.23;;;9.23;;
39266;SDS011;24967;51.154;13.812;2023-06-22T03:42:33;12.00;;;9.30;;
39266;SDS011;24967;51.154;13.812;2023-06-22T03:45:00;11.13;;;9.48;;
39266;SDS011;24967;51.154;13.812;2023-06-22T03:47:29;10.35;;;9.25;;
39266;SDS011;24967;51.154;13.812;2023-06-22T03:49:56;10.27;;;9.38;;
39266;SDS011;24967;51.154;13.812;2023-06-22T03:52:22;10.63;;;9.50;;
39266;SDS011;24967;51.154;13.812;2023-06-22T03:54:50;10.57;;;9.48;;
39266;SDS011;24967;51.154;13.812;2023-06-22T03:57:16;10.05;;;9.05;;
39266;SDS011;24967;51.154;13.812;2023-06-22T03:59:43;12.70;;;10.00;;
39266;SDS011;24967;51.154;13.812;2023-06-22T04:05:33;9.80;;;8.93;;
39266;SDS011;24967;51.154;13.812;2023-06-22T04:08:00;10.25;;;9.15;;
39266;SDS011;24967;51.154;13.812;2023-06-22T04:10:26;10.75;;;9.18;;
39266;SDS011;24967;51.154;13.812;2023-06-22T04:12:53;12.07;;;9.77;;
39266;SDS011;24967;51.154;13.812;2023-06-22T04:15:19;10.27;;;8.95;;
39266;SDS011;24967;51.154;13.812;2023-06-22T04:17:46;12.50;;;9.63;;
39266;SDS011;24967;51.154;13.812;2023-06-22T04:20:12;9.60;;;8.55;;
39266;SDS011;24967;51.154;13.812;2023-06-22T04:22:40;15.05;;;9.70;;
39266;SDS011;24967;51.154;13.812;2023-06-22T04:31:23;9.93;;;9.02;;
39266;SDS011;24967;51.154;13.812;2023-06-22T04:33:56;10.85;;;9.75;;
39266;SDS011;24967;51.154;13.812;2023-06-22T04:36:30;11.43;;;10.23;;
39266;SDS011;24967;51.154;13.812;2023-06-22T04:39:03;10.23;;;9.30;;
39266;SDS011;24967;51.154;13.812;2023-06-22T04:41:30;9.65;;;8.73;;
39266;SDS011;24967;51.154;13.812;2023-06-22T04:44:11;9.40;;;8.50;;
39266;SDS011;24967;51.154;13.812;2023-06-22T04:46:38;9.25;;;8.43;;
39266;SDS011;24967;51.154;13.812;2023-06-22T04:49:05;9.57;;;8.57;;
39266;SDS011;24967;51.154;13.812;2023-06-22T04:51:36;12.93;;;10.20;;
39266;SDS011;24967;51.154;13.812;2023-06-22T04:54:05;14.45;;;10.88;;
39266;SDS011;24967;51.154;13.812;2023-06-22T04:56:31;11.20;;;10.07;;
39266;SDS011;24967;51.154;13.812;2023-06-22T04:58:58;12.20;;;10.15;;
39266;SDS011;24967;51.154;13.812;2023-06-22T05:01:24;13.18;;;10.35;;
39266;SDS011;24967;51.154;13.812;2023-06-22T05:03:51;12.65;;;10.55;;
39266;SDS011;24967;51.154;13.812;2023-06-22T05:06:20;11.82;;;10.02;;
39266;SDS011;24967;51.154;13.812;2023-06-22T05:08:50;14.10;;;10.98;;
39266;SDS011;24967;51.154;13.812;2023-06-22T05:11:18;13.75;;;10.65;;
39266;SDS011;24967;51.154;13.812;2023-06-22T05:13:44;11.50;;;10.35;;
39266;SDS011;24967;51.154;13.812;2023-06-22T05:16:11;12.63;;;10.68;;
39266;SDS011;24967;51.154;13.812;2023-06-22T05:18:37;11.25;;;10.10;;
39266;SDS011;24967;51.154;13.812;2023-06-22T05:21:04;10.77;;;9.85;;
39266;SDS011;24967;51.154;13.812;2023-06-22T05:23:30;11.63;;;10.18;;
39266;SDS011;24967;51.154;13.812;2023-06-22T05:25:57;11.35;;;10.35;;
39266;SDS011;24967;51.154;13.812;2023-06-22T05:28:24;12.35;;;10.57;;
39266;SDS011;24967;51.154;13.812;2023-06-22T05:30:51;10.93;;;9.82;;
39266;SDS011;24967;51.154;13.812;2023-06-22T05:33:17;13.57;;;10.65;;
39266;SDS011;24967;51.154;13.812;2023-06-22T05:35:44;9.70;;;8.70;;
39266;SDS011;24967;51.154;13.812;2023-06-22T05:38:10;9.98;;;8.98;;
39266;SDS011;24967;51.154;13.812;2023-06-22T05:40:37;10.43;;;9.48;;
39266;SDS011;24967;51.154;13.812;2023-06-22T05:43:03;10.15;;;9.23;;
39266;SDS011;24967;51.154;13.812;2023-06-22T05:45:31;10.40;;;9.30;;
39266;SDS011;24967;51.154;13.812;2023-06-22T05:47:57;9.80;;;8.90;;
39266;SDS011;24967;51.154;13.812;2023-06-22T05:50:24;9.65;;;8.85;;
39266;SDS011;24967;51.154;13.812;2023-06-22T05:52:50;9.80;;;8.90;;
39266;SDS011;24967;51.154;13.812;2023-06-22T05:55:20;10.35;;;9.27;;
39266;SDS011;24967;51.154;13.812;2023-06-22T05:57:47;8.80;;;8.10;;
39266;SDS011;24967;51.154;13.812;2023-06-22T06:00:14;9.13;;;8.32;;
39266;SDS011;24967;51.154;13.812;2023-06-22T06:02:42;9.18;;;8.38;;
39266;SDS011;24967;51.154;13.812;2023-06-22T06:05:10;10.18;;;8.40;;
39266;SDS011;24967;51.154;13.812;2023-06-22T06:07:38;8.73;;;8.02;;
39266;SDS011;24967;51.154;13.812;2023-06-22T06:10:05;8.73;;;7.97;;
39266;SDS011;24967;51.154;13.812;2023-06-22T06:18:55;8.77;;;7.88;;
39266;SDS011;24967;51.154;13.812;2023-06-22T06:21:23;9.73;;;8.77;;
39266;SDS011;24967;51.154;13.812;2023-06-22T06:23:49;9.25;;;8.45;;
39266;SDS011;24967;51.154;13.812;2023-06-22T06:26:16;9.50;;;8.60;;
39266;SDS011;24967;51.154;13.812;2023-06-22T06:28:43;9.35;;;7.88;;
39266;SDS011;24967;51.154;13.812;2023-06-22T06:31:09;9.07;;;8.13;;
39266;SDS011;24967;51.154;13.812;2023-06-22T06:33:37;9.05;;;8.07;;
39266;SDS011;24967;51.154;13.812;2023-06-22T06:36:05;9.88;;;8.88;;
39266;SDS011;24967;51.154;13.812;2023-06-22T06:38:33;10.43;;;9.43;;
39266;SDS011;24967;51.154;13.812;2023-06-22T06:41:00;9.80;;;9.00;;
39266;SDS011;24967;51.154;13.812;2023-06-22T06:43:26;10.57;;;9.27;;
39266;SDS011;24967;51.154;13.812;2023-06-22T06:45:53;9.90;;;8.98;;
39266;SDS011;24967;51.154;13.812;2023-06-22T06:51:27;9.82;;;9.02;;
39266;SDS011;24967;51.154;13.812;2023-06-22T06:53:54;9.75;;;8.90;;
39266;SDS011;24967;51.154;13.812;2023-06-22T06:56:20;10.20;;;9.18;;
39266;SDS011;24967;51.154;13.812;2023-06-22T06:58:49;9.80;;;8.90;;
39266;SDS011;24967;51.154;13.812;2023-06-22T07:04:37;9.52;;;8.63;;
39266;SDS011;24967;51.154;13.812;2023-06-22T07:07:05;9.82;;;8.90;;
39266;SDS011;24967;51.154;13.812;2023-06-22T07:09:32;11.05;;;9.15;;
39266;SDS011;24967;51.154;13.812;2023-06-22T07:11:58;10.00;;;9.10;;
39266;SDS011;24967;51.154;13.812;2023-06-22T07:14:25;10.55;;;8.45;;
39266;SDS011;24967;51.154;13.812;2023-06-22T07:16:51;9.07;;;8.27;;
39266;SDS011;24967;51.154;13.812;2023-06-22T07:19:23;8.82;;;8.13;;
39266;SDS011;24967;51.154;13.812;2023-06-22T07:21:51;9.30;;;8.50;;
39266;SDS011;24967;51.154;13.812;2023-06-22T07:24:20;9.60;;;8.80;;
39266;SDS011;24967;51.154;13.812;2023-06-22T07:26:46;10.65;;;8.85;;
39266;SDS011;24967;51.154;13.812;2023-06-22T07:29:14;10.02;;;8.65;;
39266;SDS011;24967;51.154;13.812;2023-06-22T07:31:41;9.38;;;8.63;;
39266;SDS011;24967;51.154;13.812;2023-06-22T07:34:08;9.02;;;7.82;;
39266;SDS011;24967;51.154;13.812;2023-06-22T07:36:34;10.38;;;8.60;;
39266;SDS011;24967;51.154;13.812;2023-06-22T07:39:01;9.68;;;8.75;;
39266;SDS011;24967;51.154;13.812;2023-06-22T07:41:30;9.43;;;8.52;;
39266;SDS011;24967;51.154;13.812;2023-06-22T07:43:57;8.88;;;7.95;;
39266;SDS011;24967;51.154;13.812;2023-06-22T07:46:23;8.02;;;7.53;;
39266;SDS011;24967;51.154;13.812;2023-06-22T07:48:50;8.40;;;7.80;;
39266;SDS011;24967;51.154;13.812;2023-06-22T07:51:17;9.38;;;8.45;;
39266;SDS011;24967;51.154;13.812;2023-06-22T07:54:02;8.57;;;7.93;;
39266;SDS011;24967;51.154;13.812;2023-06-22T07:56:30;8.98;;;7.90;;
39266;SDS011;24967;51.154;13.812;2023-06-22T07:58:57;8.55;;;7.80;;
39266;SDS011;24967;51.154;13.812;2023-06-22T08:01:25;8.25;;;7.68;;
39266;SDS011;24967;51.154;13.812;2023-06-22T08:03:52;7.63;;;7.10;;
39266;SDS011;24967;51.154;13.812;2023-06-22T08:06:18;8.43;;;7.50;;
39266;SDS011;24967;51.154;13.812;2023-06-22T08:08:45;7.65;;;7.03;;
39266;SDS011;24967;51.154;13.812;2023-06-22T08:11:13;8.05;;;7.45;;
39266;SDS011;24967;51.154;13.812;2023-06-22T08:13:59;7.53;;;6.85;;
39266;SDS011;24967;51.154;13.812;2023-06-22T08:16:25;7.80;;;7.10;;
39266;SDS011;24967;51.154;13.812;2023-06-22T08:18:52;7.60;;;7.00;;
39266;SDS011;24967;51.154;13.812;2023-06-22T08:21:18;8.10;;;7.40;;
39266;SDS011;24967;51.154;13.812;2023-06-22T08:23:45;8.32;;;7.30;;
39266;SDS011;24967;51.154;13.812;2023-06-22T08:26:11;8.20;;;7.50;;
39266;SDS011;24967;51.154;13.812;2023-06-22T08:28:37;8.02;;;7.40;;
39266;SDS011;24967;51.154;13.812;2023-06-22T08:31:05;7.80;;;7.20;;
39266;SDS011;24967;51.154;13.812;2023-06-22T08:33:32;7.85;;;7.15;;
39266;SDS011;24967;51.154;13.812;2023-06-22T08:35:58;7.50;;;6.80;;
39266;SDS011;24967;51.154;13.812;2023-06-22T08:38:25;8.60;;;7.80;;
39266;SDS011;24967;51.154;13.812;2023-06-22T08:44:33;7.57;;;7.07;;
39266;SDS011;24967;51.154;13.812;2023-06-22T08:47:01;8.10;;;7.32;;
39266;SDS011;24967;51.154;13.812;2023-06-22T08:49:28;7.80;;;7.03;;
39266;SDS011;24967;51.154;13.812;2023-06-22T08:51:55;7.68;;;7.05;;
39266;SDS011;24967;51.154;13.812;2023-06-22T08:54:22;7.78;;;7.20;;
39266;SDS011;24967;51.154;13.812;2023-06-22T08:56:48;8.18;;;7.47;;
39266;SDS011;24967;51.154;13.812;2023-06-22T08:59:14;7.53;;;6.88;;
39266;SDS011;24967;51.154;13.812;2023-06-22T09:01:41;7.72;;;7.03;;
39266;SDS011;24967;51.154;13.812;2023-06-22T09:07:36;9.32;;;7.57;;
39266;SDS011;24967;51.154;13.812;2023-06-22T09:10:03;7.53;;;6.85;;
39266;SDS011;24967;51.154;13.812;2023-06-22T09:12:30;7.63;;;6.93;;
39266;SDS011;24967;51.154;13.812;2023-06-22T09:17:51;8.32;;;7.55;;
39266;SDS011;24967;51.154;13.812;2023-06-22T09:20:19;7.82;;;7.10;;
39266;SDS011;24967;51.154;13.812;2023-06-22T09:22:51;10.23;;;6.95;;
39266;SDS011;24967;51.154;13.812;2023-06-22T09:28:24;7.60;;;6.82;;
39266;SDS011;24967;51.154;13.812;2023-06-22T09:30:54;7.55;;;6.82;;
39266;SDS011;24967;51.154;13.812;2023-06-22T09:33:31;7.40;;;6.75;;
39266;SDS011;24967;51.154;13.812;2023-06-22T09:36:05;8.00;;;7.30;;
39266;SDS011;24967;51.154;13.812;2023-06-22T09:38:40;7.75;;;7.15;;
39266;SDS011;24967;51.154;13.812;2023-06-22T09:41:35;7.18;;;6.68;;
39266;SDS011;24967;51.154;13.812;2023-06-22T09:44:06;7.82;;;7.13;;
39266;SDS011;24967;51.154;13.812;2023-06-22T09:46:34;10.05;;;7.50;;
39266;SDS011;24967;51.154;13.812;2023-06-22T09:49:01;7.40;;;6.82;;
39266;SDS011;24967;51.154;13.812;2023-06-22T09:51:33;6.80;;;6.18;;
39266;SDS011;24967;51.154;13.812;2023-06-22T09:54:15;7.65;;;7.00;;
39266;SDS011;24967;51.154;13.812;2023-06-22T09:56:58;7.22;;;6.72;;
39266;SDS011;24967;51.154;13.812;2023-06-22T09:59:28;7.03;;;6.60;;
39266;SDS011;24967;51.154;13.812;2023-06-22T10:01:59;6.65;;;6.15;;
39266;SDS011;24967;51.154;13.812;2023-06-22T10:04:29;6.88;;;6.40;;
39266;SDS011;24967;51.154;13.812;2023-06-22T10:07:00;6.93;;;6.25;;
39266;SDS011;24967;51.154;13.812;2023-06-22T10:09:30;6.75;;;6.15;;
39266;SDS011;24967;51.154;13.812;2023-06-22T10:12:12;7.53;;;6.70;;
39266;SDS011;24967;51.154;13.812;2023-06-22T10:14:47;6.95;;;6.43;;
39266;SDS011;24967;51.154;13.812;2023-06-22T10:17:26;7.40;;;6.90;;
39266;SDS011;24967;51.154;13.812;2023-06-22T10:19:56;7.05;;;6.47;;
39266;SDS011;24967;51.154;13.812;2023-06-22T10:22:24;7.43;;;6.85;;
39266;SDS011;24967;51.154;13.812;2023-06-22T10:25:03;6.80;;;6.28;;
39266;SDS011;24967;51.154;13.812;2023-06-22T10:27:34;6.85;;;6.35;;
39266;SDS011;24967;51.154;13.812;2023-06-22T10:32:50;6.57;;;6.10;;
39266;SDS011;24967;51.154;13.812;2023-06-22T10:35:21;5.85;;;5.55;;
39266;SDS011;24967;51.154;13.812;2023-06-22T10:38:01;7.80;;;6.55;;
39266;SDS011;24967;51.154;13.812;2023-06-22T10:40:32;6.95;;;6.30;;
39266;SDS011;24967;51.154;13.812;2023-06-22T10:43:04;6.57;;;6.07;;
39266;SDS011;24967;51.154;13.812;2023-06-22T10:48:54;9.32;;;6.00;;
39266;SDS011;24967;51.154;13.812;2023-06-22T10:51:27;5.50;;;5.10;;
39266;SDS011;24967;51.154;13.812;2023-06-22T10:54:12;7.97;;;6.22;;
39266;SDS011;24967;51.154;13.812;2023-06-22T10:56:51;6.13;;;5.72;;
39266;SDS011;24967;51.154;13.812;2023-06-22T10:59:29;7.32;;;6.43;;
39266;SDS011;24967;51.154;13.812;2023-06-22T11:02:03;6.27;;;5.73;;
39266;SDS011;24967;51.154;13.812;2023-06-22T11:04:44;6.70;;;6.10;;
39266;SDS011;24967;51.154;13.812;2023-06-22T11:07:12;6.10;;;5.70;;
39266;SDS011;24967;51.154;13.812;2023-06-22T11:10:00;5.68;;;5.28;;
39266;SDS011;24967;51.154;13.812;2023-06-22T11:12:34;6.15;;;5.68;;
39266;SDS011;24967;51.154;13.812;2023-06-22T11:15:16;5.82;;;5.28;;
39266;SDS011;24967;51.154;13.812;2023-06-22T11:17:45;6.25;;;5.85;;
39266;SDS011;24967;51.154;13.812;2023-06-22T11:20:29;6.10;;;5.47;;
39266;SDS011;24967;51.154;13.812;2023-06-22T11:22:59;5.78;;;5.38;;
39266;SDS011;24967;51.154;13.812;2023-06-22T11:25:29;6.68;;;6.07;;
39266;SDS011;24967;51.154;13.812;2023-06-22T11:27:57;5.57;;;5.18;;
39266;SDS011;24967;51.154;13.812;2023-06-22T11:30:33;6.68;;;5.93;;
39266;SDS011;24967;51.154;13.812;2023-06-22T11:33:04;5.88;;;5.47;;
39266;SDS011;24967;51.154;13.812;2023-06-22T11:35:34;5.85;;;5.43;;
39266;SDS011;24967;51.154;13.812;2023-06-22T11:38:01;5.68;;;5.28;;
39266;SDS011;24967;51.154;13.812;2023-06-22T11:40:39;5.97;;;5.57;;
39266;SDS011;24967;51.154;13.812;2023-06-22T11:43:17;6.07;;;5.57;;
39266;SDS011;24967;51.154;13.812;2023-06-22T11:45:58;5.95;;;5.47;;
39266;SDS011;24967;51.154;13.812;2023-06-22T11:54:34;6.13;;;5.72;;
39266;SDS011;24967;51.154;13.812;2023-06-22T11:57:13;6.20;;;5.70;;
39266;SDS011;24967;51.154;13.812;2023-06-22T11:59:43;6.82;;;6.35;;
39266;SDS011;24967;51.154;13.812;2023-06-22T12:02:17;6.65;;;6.25;;
39266;SDS011;24967;51.154;13.812;2023-06-22T12:04:44;6.10;;;5.60;;
39266;SDS011;24967;51.154;13.812;2023-06-22T12:07:33;6.13;;;5.72;;
39266;SDS011;24967;51.154;13.812;2023-06-22T12:10:15;6.60;;;6.10;;
39266;SDS011;24967;51.154;13.812;2023-06-22T12:12:45;6.25;;;5.85;;
39266;SDS011;24967;51.154;13.812;2023-06-22T12:15:16;6.07;;;5.68;;
39266;SDS011;24967;51.154;13.812;2023-06-22T12:17:54;6.10;;;5.65;;
39266;SDS011;24967;51.154;13.812;2023-06-22T12:20:27;6.63;;;6.00;;
39266;SDS011;24967;51.154;13.812;2023-06-22T12:25:28;6.30;;;5.88;;
39266;SDS011;24967;51.154;13.812;2023-06-22T12:28:04;6.32;;;5.82;;
39266;SDS011;24967;51.154;13.812;2023-06-22T12:30:39;6.43;;;6.03;;
39266;SDS011;24967;51.154;13.812;2023-06-22T12:33:12;6.30;;;5.90;;
39266;SDS011;24967;51.154;13.812;2023-06-22T12:35:40;6.88;;;6.25;;
39266;SDS011;24967;51.154;13.812;2023-06-22T12:38:16;5.93;;;5.53;;
39266;SDS011;24967;51.154;13.812;2023-06-22T12:40:46;6.82;;;6.22;;
39266;SDS011;24967;51.154;13.812;2023-06-22T12:43:18;6.10;;;5.53;;
39266;SDS011;24967;51.154;13.812;2023-06-22T12:45:47;7.90;;;6.82;;
39266;SDS011;24967;51.154;13.812;2023-06-22T12:48:22;6.60;;;6.00;;
39266;SDS011;24967;51.154;13.812;2023-06-22T12:50:58;6.43;;;5.95;;
39266;SDS011;24967;51.154;13.812;2023-06-22T12:53:28;6.18;;;5.72;;
39266;SDS011;24967;51.154;13.812;2023-06-22T12:55:56;5.95;;;5.55;;
39266;SDS011;24967;51.154;13.812;2023-06-22T12:58:29;6.45;;;5.95;;
39266;SDS011;24967;51.154;13.812;2023-06-22T13:01:16;6.65;;;6.07;;
39266;SDS011;24967;51.154;13.812;2023-06-22T13:03:56;6.32;;;5.82;;
39266;SDS011;24967;51.154;13.812;2023-06-22T13:06:32;7.03;;;6.30;;
39266;SDS011;24967;51.154;13.812;2023-06-22T13:09:20;6.30;;;5.85;;
39266;SDS011;24967;51.154;13.812;2023-06-22T13:11:55;6.60;;;5.97;;
39266;SDS011;24967;51.154;13.812;2023-06-22T13:14:30;6.80;;;6.20;;
39266;SDS011;24967;51.154;13.812;2023-06-22T13:17:00;6.68;;;6.03;;
39266;SDS011;24967;51.154;13.812;2023-06-22T13:19:34;6.38;;;5.97;;
39266;SDS011;24967;51.154;13.812;2023-06-22T13:22:25;6.03;;;5.43;;
39266;SDS011;24967;51.154;13.812;2023-06-22T13:24:59;6.20;;;5.80;;
39266;SDS011;24967;51.154;13.812;2023-06-22T13:27:32;6.40;;;5.78;;
39266;SDS011;24967;51.154;13.812;2023-06-22T13:30:09;7.03;;;6.20;;
39266;SDS011;24967;51.154;13.812;2023-06-22T13:39:18;6.88;;;6.30;;
39266;SDS011;24967;51.154;13.812;2023-06-22T13:41:46;6.57;;;5.95;;
39266;SDS011;24967;51.154;13.812;2023-06-22T13:44:25;6.10;;;5.60;;
39266;SDS011;24967;51.154;13.812;2023-06-22T13:46:54;6.30;;;5.82;;
39266;SDS011;24967;51.154;13.812;2023-06-22T13:52:11;6.35;;;5.95;;
39266;SDS011;24967;51.154;13.812;2023-06-22T13:54:47;5.80;;;5.40;;
39266;SDS011;24967;51.154;13.812;2023-06-22T13:57:21;6.80;;;6.25;;
39266;SDS011;24967;51.154;13.812;2023-06-22T13:59:48;6.60;;;6.07;;
39266;SDS011;24967;51.154;13.812;2023-06-22T14:02:14;6.65;;;5.95;;
39266;SDS011;24967;51.154;13.812;2023-06-22T14:04:55;6.72;;;6.13;;
39266;SDS011;24967;51.154;13.812;2023-06-22T14:07:22;7.10;;;6.55;;
39266;SDS011;24967;51.154;13.812;2023-06-22T14:09:52;7.45;;;6.85;;
39266;SDS011;24967;51.154;13.812;2023-06-22T14:12:59;7.88;;;6.28;;
39266;SDS011;24967;51.154;13.812;2023-06-22T14:15:32;6.40;;;5.93;;
39266;SDS011;24967;51.154;13.812;2023-06-22T14:18:01;6.65;;;6.18;;
39266;SDS011;24967;51.154;13.812;2023-06-22T14:20:31;6.43;;;5.88;;
39266;SDS011;24967;51.154;13.812;2023-06-22T14:22:58;6.10;;;5.70;;
39266;SDS011;24967;51.154;13.812;2023-06-22T14:25:24;6.95;;;6.43;;
39266;SDS011;24967;51.154;13.812;2023-06-22T14:27:51;6.72;;;6.32;;
39266;SDS011;24967;51.154;13.812;2023-06-22T14:30:18;7.22;;;6.50;;
39266;SDS011;24967;51.154;13.812;2023-06-22T14:32:44;6.55;;;6.05;;
39266;SDS011;24967;51.154;13.812;2023-06-22T14:35:16;7.25;;;6.65;;
39266;SDS011;24967;51.154;13.812;2023-06-22T14:37:50;6.70;;;6.20;;
39266;SDS011;24967;51.154;13.812;2023-06-22T14:40:17;6.82;;;6.35;;
39266;SDS011;24967;51.154;13.812;2023-06-22T14:42:49;7.00;;;6.32;;
39266;SDS011;24967;51.154;13.812;2023-06-22T14:45:21;6.00;;;5.40;;
39266;SDS011;24967;51.154;13.812;2023-06-22T14:47:52;6.72;;;6.13;;
39266;SDS011;24967;51.154;13.812;2023-06-22T14:50:21;6.95;;;6.45;;
39266;SDS011;24967;51.154;13.812;2023-06-22T14:52:51;6.20;;;5.63;;
39266;SDS011;24967;51.154;13.812;2023-06-22T14:55:19;6.32;;;5.80;;
39266;SDS011;24967;51.154;13.812;2023-06-22T14:57:48;6.68;;;6.07;;
39266;SDS011;24967;51.154;13.812;2023-06-22T15:00:26;6.72;;;6.22;;
39266;SDS011;24967;51.154;13.812;2023-06-22T15:02:57;6.18;;;5.88;;
39266;SDS011;24967;51.154;13.812;2023-06-22T15:05:25;7.63;;;6.78;;
39266;SDS011;24967;51.154;13.812;2023-06-22T15:07:59;6.82;;;6.18;;
39266;SDS011;24967;51.154;13.812;2023-06-22T15:10:28;7.05;;;6.55;;
39266;SDS011;24967;51.154;13.812;2023-06-22T15:13:04;7.00;;;6.40;;
39266;SDS011;24967;51.154;13.812;2023-06-22T15:15:30;6.60;;;6.10;;
39266;SDS011;24967;51.154;13.812;2023-06-22T15:17:59;6.72;;;6.22;;
39266;SDS011;24967;51.154;13.812;2023-06-22T15:20:29;6.97;;;6.47;;
39266;SDS011;24967;51.154;13.812;2023-06-22T15:23:00;8.10;;;6.72;;
39266;SDS011;24967;51.154;13.812;2023-06-22T15:25:27;6.72;;;6.05;;
39266;SDS011;24967;51.154;13.812;2023-06-22T15:28:01;6.63;;;6.03;;
39266;SDS011;24967;51.154;13.812;2023-06-22T15:30:30;6.88;;;6.22;;
39266;SDS011;24967;51.154;13.812;2023-06-22T15:33:01;6.57;;;6.03;;
39266;SDS011;24967;51.154;13.812;2023-06-22T15:35:30;7.07;;;6.47;;
39266;SDS011;24967;51.154;13.812;2023-06-22T15:37:56;6.78;;;6.28;;
39266;SDS011;24967;51.154;13.812;2023-06-22T15:40:28;7.85;;;6.15;;
39266;SDS011;24967;51.154;13.812;2023-06-22T15:42:54;6.72;;;6.20;;
39266;SDS011;24967;51.154;13.812;2023-06-22T15:45:21;6.82;;;6.22;;
39266;SDS011;24967;51.154;13.812;2023-06-22T15:47:57;7.32;;;6.75;;
39266;SDS011;24967;51.154;13.812;2023-06-22T15:50:26;7.05;;;6.55;;
39266;SDS011;24967;51.154;13.812;2023-06-22T15:52:57;7.43;;;6.72;;
39266;SDS011;24967;51.154;13.812;2023-06-22T15:55:25;7.45;;;6.85;;
39266;SDS011;24967;51.154;13.812;2023-06-22T15:57:59;7.50;;;7.00;;
39266;SDS011;24967;51.154;13.812;2023-06-22T16:00:43;6.70;;;6.20;;
39266;SDS011;24967;51.154;13.812;2023-06-22T16:03:25;7.20;;;6.70;;
39266;SDS011;24967;51.154;13.812;2023-06-22T16:05:56;7.78;;;6.85;;
39266;SDS011;24967;51.154;13.812;2023-06-22T16:08:28;7.57;;;6.88;;
39266;SDS011;24967;51.154;13.812;2023-06-22T16:10:57;7.40;;;6.90;;
39266;SDS011;24967;51.154;13.812;2023-06-22T16:13:27;6.75;;;6.20;;